Karditsa, Greece
Current Conditions -  °F | °C
As of 6:20 AM on Wednesday 22 Oct 2014 (Local Time) from LGLR Reporting Station
Clear Clear  
Wind Chill: 46°   Ceiling: Unl
Heat Index: 46°   Visibility: 5mi
Dew Point: 46°   Wind: 0mph
Humidity: 100%   Direction: NA
Pressure: 29.77"   Gusts: NA
Location:  39.37°N, 21.92°E
Report Text: LGLR 220320Z 00000KT 8000 NSC 08/08 Q1008 BLU
Loading
Personal Weather Stations






























Interactive Weather Map New forecast layout! Learn more

10-Day Weather Forecast

Advertisements
Track Severe Weather on mobile